createdAt,value
2023-04-19T00:01:28.376Z,64.37
2023-04-19T00:03:56.316Z,64.42
2023-04-19T00:06:23.412Z,64.36
2023-04-19T00:08:49.889Z,64.95
2023-04-19T00:11:16.372Z,65.55
2023-04-19T00:13:42.852Z,65.45
2023-04-19T00:16:09.440Z,65.77
2023-04-19T00:18:36.465Z,66.04
2023-04-19T00:21:03.053Z,66.75
2023-04-19T00:23:29.532Z,66.51
2023-04-19T00:25:55.998Z,65.47
2023-04-19T00:28:22.472Z,65.93
2023-04-19T00:30:48.950Z,66.06
2023-04-19T00:33:15.530Z,66.15
2023-04-19T00:35:42.360Z,66.31
2023-04-19T00:38:08.935Z,65.97
2023-04-19T00:40:36.796Z,65.77
2023-04-19T00:43:03.285Z,65.90
2023-04-19T00:45:29.960Z,65.09
2023-04-19T00:47:56.583Z,66.06
2023-04-19T00:50:23.194Z,65.81
2023-04-19T00:52:49.680Z,65.73
2023-04-19T00:55:16.309Z,65.42
2023-04-19T00:57:43.064Z,65.18
2023-04-19T01:00:10.132Z,65.39
2023-04-19T01:02:36.883Z,65.45
2023-04-19T01:05:03.582Z,65.31
2023-04-19T01:07:30.141Z,64.62
2023-04-19T01:09:56.723Z,64.71
2023-04-19T01:12:23.220Z,64.46
2023-04-19T01:14:50.681Z,64.49
2023-04-19T01:17:18.839Z,65.09
2023-04-19T01:19:46.078Z,65.38
2023-04-19T01:22:21.462Z,66.10
2023-04-19T01:24:47.922Z,65.47
2023-04-19T01:27:14.730Z,65.54
2023-04-19T01:29:41.232Z,65.96
2023-04-19T01:32:07.939Z,66.24
2023-04-19T01:34:34.519Z,67.08
2023-04-19T01:37:01.028Z,68.22
2023-04-19T01:39:27.550Z,66.95
2023-04-19T01:41:54.005Z,67.34
2023-04-19T01:44:20.458Z,67.11
2023-04-19T01:46:46.951Z,66.88
2023-04-19T01:49:13.508Z,66.80
2023-04-19T01:51:40.051Z,66.54
2023-04-19T01:54:06.539Z,66.81
2023-04-19T01:56:33.267Z,67.84
2023-04-19T01:58:59.753Z,67.93
2023-04-19T02:01:26.344Z,68.09
2023-04-19T02:03:53.066Z,67.73
2023-04-19T02:06:19.724Z,67.78
2023-04-19T02:08:46.227Z,67.83
2023-04-19T02:11:16.776Z,68.98
2023-04-19T02:13:43.398Z,69.66
2023-04-19T02:16:10.872Z,69.18
2023-04-19T02:18:38.660Z,69.27
2023-04-19T02:21:06.167Z,68.06
2023-04-19T02:23:33.062Z,69.08
2023-04-19T02:26:01.431Z,67.95
2023-04-19T02:28:27.879Z,67.71
2023-04-19T02:30:54.314Z,68.43
2023-04-19T02:33:22.291Z,69.08
2023-04-19T02:35:48.723Z,69.26
2023-04-19T02:38:15.581Z,69.37
2023-04-19T02:40:42.064Z,68.56
2023-04-19T02:43:08.543Z,67.38
2023-04-19T02:45:35.121Z,68.09
2023-04-19T02:48:02.340Z,68.55
2023-04-19T02:50:28.951Z,69.54
2023-04-19T02:52:55.423Z,69.28
2023-04-19T02:55:22.140Z,69.30
2023-04-19T02:57:48.630Z,70.11
2023-04-19T03:00:15.532Z,69.95
2023-04-19T03:02:43.714Z,69.51
2023-04-19T03:05:10.747Z,69.21
2023-04-19T03:07:37.205Z,69.46
2023-04-19T03:10:04.016Z,69.63
2023-04-19T03:12:30.471Z,69.33
2023-04-19T03:14:56.933Z,69.64
2023-04-19T03:17:23.409Z,69.36
2023-04-19T03:19:49.881Z,68.53
2023-04-19T03:22:16.288Z,68.54
2023-04-19T03:24:42.810Z,68.46
2023-04-19T03:27:09.309Z,68.90
2023-04-19T03:29:35.816Z,69.79
2023-04-19T03:32:02.303Z,70.16
2023-04-19T03:34:28.783Z,69.61
2023-04-19T03:36:55.577Z,68.80
2023-04-19T03:39:22.073Z,68.71
2023-04-19T03:41:48.553Z,68.59
2023-04-19T03:44:15.446Z,68.79
2023-04-19T03:46:42.260Z,68.63
2023-04-19T03:49:08.756Z,67.99
2023-04-19T03:51:35.373Z,67.50
2023-04-19T03:54:01.841Z,66.73
2023-04-19T03:56:28.334Z,66.83
2023-04-19T03:58:55.625Z,66.99
2023-04-19T04:01:22.741Z,66.77
2023-04-19T04:03:49.648Z,66.85
2023-04-19T04:06:16.404Z,66.31
2023-04-19T04:08:42.902Z,66.85
2023-04-19T04:11:09.533Z,68.00
2023-04-19T04:13:36.091Z,67.46
2023-04-19T04:16:02.638Z,68.48
2023-04-19T04:18:29.216Z,68.32
2023-04-19T04:20:55.705Z,68.66
2023-04-19T04:23:22.780Z,68.70
2023-04-19T04:25:58.040Z,68.91
2023-04-19T04:28:24.546Z,67.83
2023-04-19T04:30:51.949Z,68.54
2023-04-19T04:33:18.662Z,67.69
2023-04-19T04:35:45.117Z,68.30
2023-04-19T04:38:23.451Z,67.73
2023-04-19T04:40:54.707Z,69.40
2023-04-19T04:43:22.853Z,69.06
2023-04-19T04:45:49.899Z,69.98
2023-04-19T04:48:16.429Z,69.99
2023-04-19T04:50:43.026Z,70.89
2023-04-19T04:53:12.314Z,70.53
2023-04-19T04:55:39.394Z,70.36
2023-04-19T04:58:05.935Z,71.05
2023-04-19T05:00:32.703Z,70.79
2023-04-19T05:03:00.082Z,71.00
2023-04-19T05:05:26.780Z,69.43
2023-04-19T05:07:53.252Z,70.59
2023-04-19T05:10:19.757Z,71.10
2023-04-19T05:12:46.241Z,70.34
2023-04-19T05:15:12.738Z,70.50
2023-04-19T05:17:39.256Z,70.10
2023-04-19T05:20:07.794Z,69.65
2023-04-19T05:22:34.367Z,69.17
2023-04-19T05:25:01.088Z,69.21
2023-04-19T05:27:27.553Z,67.56
2023-04-19T05:29:54.052Z,67.84
2023-04-19T05:32:20.795Z,67.35
2023-04-19T05:34:47.472Z,66.20
2023-04-19T05:37:14.043Z,65.81
2023-04-19T05:39:42.868Z,65.55
2023-04-19T05:42:10.751Z,66.12
2023-04-19T05:44:37.227Z,63.90
2023-04-19T05:47:03.723Z,64.80
2023-04-19T05:49:30.291Z,64.82
2023-04-19T05:51:57.098Z,64.18
2023-04-19T05:54:23.850Z,64.05
2023-04-19T05:56:50.389Z,64.14
2023-04-19T05:59:16.921Z,63.39
2023-04-19T06:01:43.524Z,62.64
2023-04-19T06:04:10.353Z,62.98
2023-04-19T06:06:38.163Z,63.17
2023-04-19T06:09:04.910Z,62.11
2023-04-19T06:11:39.389Z,61.88
2023-04-19T06:14:14.730Z,62.11
2023-04-19T06:16:41.779Z,61.37
2023-04-19T06:19:08.316Z,61.18
2023-04-19T06:21:34.947Z,60.59
2023-04-19T06:24:01.610Z,60.12
2023-04-19T06:26:29.226Z,60.04
2023-04-19T06:28:55.925Z,59.86
2023-04-19T06:31:22.461Z,58.97
2023-04-19T06:33:48.998Z,59.07
2023-04-19T06:36:15.509Z,58.65
2023-04-19T06:38:44.443Z,58.43
2023-04-19T06:41:11.004Z,57.36
2023-04-19T06:43:37.486Z,57.52
2023-04-19T06:46:06.908Z,56.95
2023-04-19T06:48:34.285Z,56.40
2023-04-19T06:51:01.086Z,56.39
2023-04-19T06:53:27.587Z,55.08
2023-04-19T06:56:00.124Z,55.13
2023-04-19T06:58:27.366Z,54.66
2023-04-19T07:00:54.154Z,54.08
2023-04-19T07:03:21.249Z,54.68
2023-04-19T07:05:48.230Z,54.06
2023-04-19T07:08:15.008Z,54.07
2023-04-19T07:10:43.775Z,53.26
2023-04-19T07:13:13.384Z,53.28
2023-04-19T07:15:39.944Z,53.38
2023-04-19T07:18:06.577Z,52.52
2023-04-19T07:20:33.642Z,52.72
2023-04-19T07:23:00.211Z,52.80
2023-04-19T07:25:26.828Z,52.37
2023-04-19T07:27:54.678Z,51.48
2023-04-19T07:30:21.321Z,51.18
2023-04-19T07:32:48.007Z,51.21
2023-04-19T07:35:14.628Z,51.36
2023-04-19T07:37:42.701Z,51.14
2023-04-19T07:40:09.871Z,50.24
2023-04-19T07:42:36.436Z,49.34
2023-04-19T07:45:03.231Z,48.82
2023-04-19T07:47:29.804Z,48.97
2023-04-19T07:49:56.540Z,48.95
2023-04-19T07:52:22.992Z,47.95
2023-04-19T07:54:49.773Z,48.16
2023-04-19T07:57:16.220Z,48.35
2023-04-19T07:59:42.679Z,47.88
2023-04-19T08:02:09.295Z,46.85
2023-04-19T08:04:37.460Z,46.58
2023-04-19T08:07:04.877Z,47.21
2023-04-19T08:09:33.948Z,47.08
2023-04-19T08:12:01.382Z,46.59
2023-04-19T08:14:37.432Z,46.33
2023-04-19T08:17:24.187Z,45.70
2023-04-19T08:19:52.549Z,46.34
2023-04-19T08:22:20.345Z,44.99
2023-04-19T08:24:46.911Z,45.12
2023-04-19T08:27:13.390Z,45.03
2023-04-19T08:29:40.578Z,45.01
2023-04-19T08:32:07.436Z,43.63
2023-04-19T08:34:39.128Z,43.18
2023-04-19T08:37:07.276Z,42.55
2023-04-19T08:39:34.683Z,44.07
2023-04-19T08:42:11.098Z,43.13
2023-04-19T08:44:59.689Z,42.76
2023-04-19T08:47:44.896Z,42.92
2023-04-19T08:50:32.410Z,42.97
2023-04-19T08:53:15.636Z,42.58
2023-04-19T08:56:06.767Z,41.76
2023-04-19T08:58:52.016Z,41.18
2023-04-19T09:01:33.917Z,43.20
2023-04-19T09:04:17.313Z,41.80
2023-04-19T09:06:53.493Z,40.78
2023-04-19T09:11:51.624Z,41.87
2023-04-19T09:14:19.724Z,40.89
2023-04-19T09:16:46.329Z,41.41
2023-04-19T09:19:23.439Z,41.13
2023-04-19T09:21:53.808Z,41.42
2023-04-19T09:25:04.534Z,41.31
2023-04-19T09:27:27.192Z,41.51
2023-04-19T09:29:55.429Z,42.36
2023-04-19T09:32:22.696Z,42.38
2023-04-19T09:35:00.427Z,41.28
2023-04-19T09:39:57.021Z,40.67
2023-04-19T09:42:42.382Z,40.33
2023-04-19T09:45:28.289Z,39.42
2023-04-19T09:48:04.786Z,39.16
2023-04-19T09:50:32.201Z,40.43
2023-04-19T09:53:01.042Z,40.66
2023-04-19T09:55:29.226Z,39.30
2023-04-19T09:57:58.107Z,40.11
2023-04-19T10:00:25.103Z,40.03
2023-04-19T10:02:57.991Z,38.21
2023-04-19T10:05:25.847Z,38.70
2023-04-19T10:07:57.460Z,40.16
2023-04-19T10:10:40.584Z,39.98
2023-04-19T10:13:19.861Z,37.10
2023-04-19T10:15:52.705Z,37.58
2023-04-19T10:18:23.803Z,40.12
2023-04-19T10:21:00.071Z,39.55
2023-04-19T10:23:26.785Z,37.83
2023-04-19T10:26:00.459Z,37.18
2023-04-19T10:28:31.020Z,37.00
2023-04-19T10:31:03.489Z,35.70
2023-04-19T10:33:34.472Z,34.70
2023-04-19T10:36:01.554Z,34.14
2023-04-19T10:38:55.517Z,33.29
2023-04-19T10:41:22.880Z,33.88
2023-04-19T10:44:08.586Z,33.77
2023-04-19T10:46:36.173Z,34.42
2023-04-19T10:49:04.361Z,34.09
2023-04-19T10:51:44.228Z,32.29
2023-04-19T10:54:36.537Z,33.63
2023-04-19T10:57:07.552Z,33.76
2023-04-19T10:59:35.049Z,32.75
2023-04-19T11:02:04.337Z,33.27
2023-04-19T11:04:51.150Z,34.38
2023-04-19T11:07:18.495Z,31.80
2023-04-19T11:09:46.085Z,32.95
2023-04-19T11:12:14.513Z,32.21
2023-04-19T11:14:42.794Z,31.62
2023-04-19T11:17:27.762Z,32.54
2023-04-19T11:20:00.684Z,33.02
2023-04-19T11:22:36.038Z,32.74
2023-04-19T11:25:09.230Z,33.50
2023-04-19T11:27:35.898Z,33.92
2023-04-19T11:30:07.033Z,32.82
2023-04-19T11:32:33.731Z,33.65
2023-04-19T11:35:08.464Z,34.29
2023-04-19T11:37:38.219Z,33.96
2023-04-19T11:40:06.523Z,34.49
2023-04-19T11:42:33.773Z,33.58
2023-04-19T11:45:00.463Z,34.79
2023-04-19T11:47:27.426Z,34.61
2023-04-19T11:49:56.985Z,33.43
2023-04-19T11:52:25.607Z,34.28
2023-04-19T11:54:53.094Z,34.20
2023-04-19T11:57:30.633Z,34.87
2023-04-19T12:00:11.801Z,35.77
2023-04-19T12:02:43.827Z,34.43
2023-04-19T12:05:14.658Z,33.34
2023-04-19T12:08:00.413Z,34.25
2023-04-19T12:10:26.956Z,34.71
2023-04-19T12:12:53.408Z,34.13
2023-04-19T12:15:21.795Z,34.45
2023-04-19T12:18:00.550Z,34.28
2023-04-19T12:20:34.704Z,35.02
2023-04-19T12:23:01.243Z,35.47
2023-04-19T12:25:29.448Z,34.71
2023-04-19T12:27:56.752Z,32.70
2023-04-19T12:30:23.321Z,31.32
2023-04-19T12:32:51.477Z,29.44
2023-04-19T12:35:18.182Z,29.17
2023-04-19T12:37:44.625Z,28.04
2023-04-19T12:40:11.912Z,28.99
2023-04-19T12:42:38.353Z,29.52
2023-04-19T12:45:05.502Z,28.78
2023-04-19T12:47:32.025Z,30.70
2023-04-19T12:49:58.638Z,28.24
2023-04-19T12:52:25.199Z,29.53
2023-04-19T12:54:51.680Z,29.96
2023-04-19T12:57:18.155Z,29.96
2023-04-19T12:59:44.642Z,29.40
2023-04-19T13:02:11.165Z,29.79
2023-04-19T13:04:37.827Z,29.74
2023-04-19T13:07:04.368Z,29.82
2023-04-19T13:09:30.860Z,28.62
2023-04-19T13:11:58.096Z,29.00
2023-04-19T13:14:26.469Z,29.56
2023-04-19T13:16:52.991Z,28.90
2023-04-19T13:19:19.626Z,30.29
2023-04-19T13:21:46.123Z,29.91
2023-04-19T13:24:12.595Z,29.69
2023-04-19T13:26:39.254Z,30.95
2023-04-19T13:29:05.775Z,30.81
2023-04-19T13:31:32.309Z,31.28
2023-04-19T13:34:00.501Z,31.21
2023-04-19T13:36:28.163Z,31.67
2023-04-19T13:38:54.759Z,31.74
2023-04-19T13:41:21.378Z,31.28
2023-04-19T13:43:48.243Z,32.20
2023-04-19T13:46:14.814Z,31.90
2023-04-19T13:48:41.300Z,31.70
2023-04-19T13:51:08.447Z,30.87
2023-04-19T13:53:35.004Z,30.77
2023-04-19T13:56:01.559Z,30.63
2023-04-19T13:58:28.076Z,31.34
2023-04-19T14:00:54.722Z,30.99
2023-04-19T14:03:23.122Z,29.76
2023-04-19T14:05:49.832Z,29.87
2023-04-19T14:08:16.387Z,29.62
2023-04-19T14:10:42.854Z,29.54
2023-04-19T14:13:09.353Z,29.82
2023-04-19T14:15:35.887Z,29.81
2023-04-19T14:18:02.578Z,30.04
2023-04-19T14:20:29.130Z,30.18
2023-04-19T14:22:56.208Z,29.20
2023-04-19T14:25:22.692Z,29.82
2023-04-19T14:27:49.134Z,30.08
2023-04-19T14:30:15.842Z,30.72
2023-04-19T14:32:42.512Z,29.99
2023-04-19T14:35:11.263Z,29.92
2023-04-19T14:37:38.451Z,31.13
2023-04-19T14:40:05.519Z,30.67
2023-04-19T14:42:32.476Z,31.58
2023-04-19T14:44:59.047Z,31.73
2023-04-19T14:47:25.522Z,32.28
2023-04-19T14:49:52.520Z,32.10
2023-04-19T14:52:19.192Z,33.17
2023-04-19T14:54:46.128Z,32.38
2023-04-19T14:57:13.664Z,31.81
2023-04-19T14:59:40.382Z,31.58
2023-04-19T15:02:07.283Z,32.40
2023-04-19T15:04:37.416Z,32.37
2023-04-19T15:07:06.327Z,32.07
2023-04-19T15:09:32.794Z,32.65
2023-04-19T15:11:59.359Z,31.93
2023-04-19T15:14:25.795Z,32.60
2023-04-19T15:16:52.300Z,33.38
2023-04-19T15:19:19.050Z,32.73
2023-04-19T15:21:45.897Z,32.82
2023-04-19T15:24:12.359Z,33.50
2023-04-19T15:26:39.320Z,33.53
2023-04-19T15:29:05.855Z,34.01
2023-04-19T15:31:32.548Z,34.02
2023-04-19T15:34:02.927Z,33.67
2023-04-19T15:36:29.672Z,33.29
2023-04-19T15:38:57.060Z,33.18
2023-04-19T15:41:23.588Z,33.20
2023-04-19T15:43:50.045Z,33.28
2023-04-19T15:46:16.785Z,33.96
2023-04-19T15:48:44.520Z,33.46
2023-04-19T15:51:11.507Z,33.84
2023-04-19T15:53:38.231Z,34.52
2023-04-19T15:56:05.488Z,34.00
2023-04-19T15:58:31.993Z,34.45
2023-04-19T16:00:58.478Z,34.43
2023-04-19T16:03:25.099Z,34.75
2023-04-19T16:05:51.839Z,34.33
2023-04-19T16:08:19.739Z,34.73
2023-04-19T16:10:47.148Z,34.51
2023-04-19T16:13:14.326Z,34.24
2023-04-19T16:15:41.739Z,34.14
2023-04-19T16:18:08.867Z,34.43
2023-04-19T16:20:35.639Z,35.02
2023-04-19T16:23:03.481Z,35.20
2023-04-19T16:25:30.928Z,36.20
2023-04-19T16:27:57.461Z,35.83
2023-04-19T16:30:26.576Z,35.58
2023-04-19T16:32:57.313Z,35.30
2023-04-19T16:35:24.301Z,35.42
2023-04-19T16:37:51.075Z,35.57
2023-04-19T16:40:17.598Z,36.17
2023-04-19T16:42:44.091Z,36.54
2023-04-19T16:45:10.946Z,36.04
2023-04-19T16:47:37.841Z,36.36
2023-04-19T16:50:06.078Z,35.92
2023-04-19T16:52:34.451Z,36.53
2023-04-19T16:55:03.514Z,37.57
2023-04-19T16:57:30.933Z,36.84
2023-04-19T16:59:57.848Z,37.50
2023-04-19T17:02:24.549Z,37.89
2023-04-19T17:04:51.527Z,38.03
2023-04-19T17:07:18.109Z,39.52
2023-04-19T17:09:44.547Z,39.38
2023-04-19T17:12:11.031Z,39.07
2023-04-19T17:14:39.505Z,39.30
2023-04-19T17:17:06.049Z,39.62
2023-04-19T17:19:33.122Z,39.82
2023-04-19T17:22:05.036Z,40.33
2023-04-19T17:24:33.677Z,40.11
2023-04-19T17:27:01.060Z,41.05
2023-04-19T17:29:28.132Z,40.80
2023-04-19T17:31:56.062Z,40.90
2023-04-19T17:34:22.959Z,41.33
2023-04-19T17:36:49.570Z,41.20
2023-04-19T17:39:16.291Z,41.37
2023-04-19T17:41:46.144Z,41.61
2023-04-19T17:44:12.774Z,41.79
2023-04-19T17:46:40.995Z,42.12
2023-04-19T17:49:09.495Z,42.15
2023-04-19T17:51:36.703Z,41.98
2023-04-19T17:54:03.863Z,43.16
2023-04-19T17:56:31.841Z,43.22
2023-04-19T17:59:01.876Z,43.73
2023-04-19T18:01:30.188Z,43.98
2023-04-19T18:03:57.394Z,44.76
2023-04-19T18:06:24.078Z,45.62
2023-04-19T18:08:50.544Z,45.97
2023-04-19T18:11:20.684Z,45.70
2023-04-19T18:13:47.696Z,46.54
2023-04-19T18:16:15.717Z,46.83
2023-04-19T18:18:45.215Z,47.04
2023-04-19T18:21:11.757Z,46.76
2023-04-19T18:23:38.967Z,47.15
2023-04-19T18:26:05.432Z,47.39
2023-04-19T18:28:31.996Z,47.62
2023-04-19T18:30:58.871Z,47.77
2023-04-19T18:33:27.328Z,47.76
2023-04-19T18:35:58.872Z,48.39
2023-04-19T18:38:33.492Z,48.18
2023-04-19T18:41:02.182Z,49.05
2023-04-19T18:43:30.858Z,48.96
2023-04-19T18:46:00.468Z,49.04
2023-04-19T18:48:29.464Z,49.42
2023-04-19T18:50:59.969Z,50.12
2023-04-19T18:53:29.477Z,50.57
2023-04-19T18:56:06.361Z,51.05
2023-04-19T18:58:34.032Z,51.65
2023-04-19T19:01:00.706Z,51.49
2023-04-19T19:05:57.815Z,52.30
2023-04-19T19:08:24.648Z,52.55
2023-04-19T19:13:42.465Z,53.37
2023-04-19T19:16:15.031Z,53.50
2023-04-19T19:18:49.588Z,54.17
2023-04-19T19:21:22.959Z,55.13
2023-04-19T19:23:52.531Z,55.37
2023-04-19T19:26:19.803Z,56.64
2023-04-19T19:28:47.429Z,56.14
2023-04-19T19:31:14.017Z,56.39
2023-04-19T19:33:40.987Z,56.76
2023-04-19T19:36:07.744Z,55.96
2023-04-19T19:38:37.504Z,56.66
2023-04-19T19:41:49.519Z,56.59
2023-04-19T19:43:53.748Z,57.43
2023-04-19T19:46:22.682Z,58.19
2023-04-19T19:48:53.513Z,58.35
2023-04-19T19:51:48.137Z,58.71
2023-04-19T19:54:07.201Z,60.29
2023-04-19T19:59:01.935Z,62.29
2023-04-19T20:01:28.474Z,61.03
2023-04-19T20:03:56.051Z,62.38
2023-04-19T20:08:52.396Z,61.49
2023-04-19T20:11:19.451Z,62.67
2023-04-19T20:13:46.136Z,62.01
2023-04-19T20:16:14.872Z,61.30
2023-04-19T20:18:44.032Z,60.84
2023-04-19T20:21:11.299Z,60.34
2023-04-19T20:23:41.244Z,61.08
2023-04-19T20:26:07.784Z,61.48
2023-04-19T20:28:35.307Z,62.03
2023-04-19T20:31:02.040Z,63.88
2023-04-19T20:33:34.991Z,63.39
2023-04-19T20:36:01.927Z,62.68
2023-04-19T20:38:28.656Z,62.04
2023-04-19T20:40:55.985Z,61.05
2023-04-19T20:43:22.619Z,59.91
2023-04-19T20:45:49.264Z,59.21
2023-04-19T20:48:16.048Z,59.16
2023-04-19T20:50:42.705Z,59.99
2023-04-19T20:53:09.240Z,59.32
2023-04-19T20:55:35.790Z,59.25
2023-04-19T20:58:02.569Z,59.42
2023-04-19T21:00:29.107Z,58.83
2023-04-19T21:02:55.843Z,58.57
2023-04-19T21:05:22.703Z,57.94
2023-04-19T21:07:49.269Z,57.05
2023-04-19T21:10:17.269Z,57.04
2023-04-19T21:12:43.896Z,56.05
2023-04-19T21:15:12.144Z,55.93
2023-04-19T21:17:38.889Z,55.69
2023-04-19T21:20:12.030Z,55.70
2023-04-19T21:22:43.020Z,55.38
2023-04-19T21:25:11.116Z,56.12
2023-04-19T21:27:40.332Z,56.59
2023-04-19T21:30:07.926Z,57.00
2023-04-19T21:32:34.464Z,56.65
2023-04-19T21:35:01.455Z,56.96
2023-04-19T21:37:28.403Z,56.84
2023-04-19T21:39:56.050Z,57.77
2023-04-19T21:42:22.833Z,57.69
2023-04-19T21:44:49.294Z,58.89
2023-04-19T21:47:15.759Z,58.50
2023-04-19T21:49:54.751Z,58.89
2023-04-19T21:52:21.234Z,59.47
2023-04-19T21:54:48.729Z,59.59
2023-04-19T21:57:15.221Z,59.47
2023-04-19T21:59:41.689Z,59.75
2023-04-19T22:02:08.282Z,59.77
2023-04-19T22:04:36.675Z,60.79
2023-04-19T22:07:03.215Z,61.04
2023-04-19T22:09:30.416Z,62.56
2023-04-19T22:11:56.891Z,61.41
2023-04-19T22:14:24.035Z,61.31
2023-04-19T22:16:50.923Z,61.76
2023-04-19T22:19:18.224Z,62.02
2023-04-19T22:21:46.240Z,60.89
2023-04-19T22:24:12.777Z,60.66
2023-04-19T22:26:39.230Z,60.95
2023-04-19T22:29:05.977Z,61.22
2023-04-19T22:31:32.429Z,61.30
2023-04-19T22:33:58.912Z,61.87
2023-04-19T22:36:25.691Z,61.88
2023-04-19T22:38:52.148Z,63.14
2023-04-19T22:41:18.595Z,63.54
2023-04-19T22:43:45.501Z,65.53
2023-04-19T22:46:12.663Z,65.50
2023-04-19T22:48:39.197Z,65.32
2023-04-19T22:51:06.468Z,65.92
2023-04-19T22:53:33.018Z,65.47
2023-04-19T22:55:59.451Z,65.43
2023-04-19T22:58:25.915Z,65.88
2023-04-19T23:00:52.542Z,65.56
2023-04-19T23:03:19.046Z,64.78
2023-04-19T23:05:47.238Z,64.02
2023-04-19T23:08:15.156Z,63.59
2023-04-19T23:10:42.410Z,62.10
2023-04-19T23:13:10.433Z,61.43
2023-04-19T23:15:38.300Z,60.41
2023-04-19T23:18:05.020Z,58.96
2023-04-19T23:20:31.664Z,58.05
2023-04-19T23:22:59.371Z,56.66
2023-04-19T23:25:26.011Z,55.43
2023-04-19T23:27:52.592Z,55.01
2023-04-19T23:30:19.463Z,54.50
2023-04-19T23:32:46.029Z,53.75
2023-04-19T23:35:12.521Z,53.13
2023-04-19T23:37:39.401Z,51.55
2023-04-19T23:40:06.666Z,50.62
2023-04-19T23:42:33.377Z,50.14
2023-04-19T23:44:59.847Z,48.93
2023-04-19T23:47:26.427Z,47.31
2023-04-19T23:49:52.882Z,46.23
2023-04-19T23:52:22.589Z,46.07
2023-04-19T23:54:49.632Z,45.33
2023-04-19T23:57:16.158Z,45.11
2023-04-19T23:59:42.595Z,45.23
